createdAt,value
2023-05-10T00:01:35.134Z,59.80
2023-05-10T00:04:02.418Z,59.50
2023-05-10T00:06:29.353Z,59.30
2023-05-10T00:08:57.546Z,59.80
2023-05-10T00:11:24.620Z,59.80
2023-05-10T00:13:51.514Z,59.70
2023-05-10T00:16:18.478Z,59.90
2023-05-10T00:18:45.396Z,59.80
2023-05-10T00:21:12.532Z,60.00
2023-05-10T00:28:34.767Z,60.40
2023-05-10T00:31:01.716Z,60.80
2023-05-10T00:33:30.509Z,60.80
2023-05-10T00:35:57.590Z,61.10
2023-05-10T00:38:24.573Z,61.10
2023-05-10T00:40:51.542Z,60.80
2023-05-10T00:43:26.438Z,61.10
2023-05-10T00:45:54.286Z,60.80
2023-05-10T00:48:22.100Z,61.10
2023-05-10T00:50:49.286Z,61.30
2023-05-10T00:53:22.950Z,61.10
2023-05-10T00:55:50.028Z,61.40
2023-05-10T00:58:17.011Z,61.30
2023-05-10T01:00:47.272Z,61.10
2023-05-10T01:03:15.359Z,61.20
2023-05-10T01:05:42.420Z,60.80
2023-05-10T01:08:09.875Z,61.30
2023-05-10T01:10:37.044Z,61.20
2023-05-10T01:13:04.286Z,61.40
2023-05-10T01:15:32.233Z,61.70
2023-05-10T01:18:00.037Z,61.30
2023-05-10T01:20:30.880Z,61.70
2023-05-10T01:23:29.916Z,61.70
2023-05-10T01:26:14.941Z,62.40
2023-05-10T01:28:47.728Z,62.20
2023-05-10T01:31:33.392Z,62.10
2023-05-10T01:34:08.014Z,62.40
2023-05-10T01:36:41.039Z,62.50
2023-05-10T01:39:33.859Z,62.70
2023-05-10T01:42:09.114Z,62.90
2023-05-10T01:44:46.716Z,62.70
2023-05-10T01:47:41.488Z,63.20
2023-05-10T01:50:16.340Z,63.20
2023-05-10T01:52:49.132Z,62.90
2023-05-10T01:55:19.167Z,63.20
2023-05-10T01:57:49.087Z,62.70
2023-05-10T02:00:17.451Z,62.60
2023-05-10T02:02:47.443Z,62.90
2023-05-10T02:05:17.072Z,62.90
2023-05-10T02:07:44.969Z,62.80
2023-05-10T02:10:14.538Z,63.40
2023-05-10T02:12:48.566Z,63.60
2023-05-10T02:15:21.061Z,63.50
2023-05-10T02:17:49.731Z,63.90
2023-05-10T02:20:18.305Z,64.00
2023-05-10T02:22:48.131Z,63.90
2023-05-10T02:25:16.695Z,64.20
2023-05-10T02:27:45.643Z,64.10
2023-05-10T02:30:13.919Z,64.30
2023-05-10T02:32:42.070Z,64.20
2023-05-10T02:35:10.838Z,64.70
2023-05-10T02:37:39.781Z,64.40
2023-05-10T02:40:08.526Z,64.70
2023-05-10T02:42:38.714Z,64.60
2023-05-10T02:45:13.114Z,64.80
2023-05-10T02:47:40.606Z,64.50
2023-05-10T02:50:08.217Z,64.60
2023-05-10T02:52:45.764Z,64.60
2023-05-10T02:55:16.906Z,64.80
2023-05-10T02:57:49.943Z,64.70
2023-05-10T03:00:17.308Z,64.80
2023-05-10T03:02:44.587Z,64.70
2023-05-10T03:05:11.614Z,64.90
2023-05-10T03:07:38.581Z,64.70
2023-05-10T03:10:06.848Z,64.90
2023-05-10T03:13:04.446Z,64.70
2023-05-10T03:15:51.679Z,65.00
2023-05-10T03:18:24.023Z,65.30
2023-05-10T03:21:00.715Z,65.60
2023-05-10T03:23:39.723Z,65.60
2023-05-10T03:26:08.350Z,66.00
2023-05-10T03:28:36.573Z,66.50
2023-05-10T03:31:07.180Z,66.50
2023-05-10T03:33:34.805Z,66.60
2023-05-10T03:36:01.750Z,66.70
2023-05-10T03:38:30.557Z,67.10
2023-05-10T03:40:58.039Z,67.00
2023-05-10T03:43:25.071Z,67.20
2023-05-10T03:45:52.736Z,67.20
2023-05-10T03:48:19.749Z,67.00
2023-05-10T03:50:46.978Z,66.90
2023-05-10T03:53:14.469Z,66.80
2023-05-10T03:55:41.368Z,67.10
2023-05-10T03:58:12.075Z,66.90
2023-05-10T04:00:44.632Z,66.40
2023-05-10T04:03:13.061Z,66.20
2023-05-10T04:05:40.466Z,66.20
2023-05-10T04:08:07.663Z,66.40
2023-05-10T04:10:42.730Z,66.10
2023-05-10T04:13:09.825Z,66.10
2023-05-10T04:15:37.092Z,66.10
2023-05-10T04:18:08.875Z,66.20
2023-05-10T04:20:36.163Z,65.90
2023-05-10T04:23:03.185Z,65.60
2023-05-10T04:25:30.202Z,65.50
2023-05-10T04:27:57.195Z,65.50
2023-05-10T04:30:24.188Z,65.60
2023-05-10T04:32:51.197Z,65.70
2023-05-10T04:35:18.332Z,65.50
2023-05-10T04:37:45.303Z,65.20
2023-05-10T04:40:12.695Z,65.00
2023-05-10T04:42:42.285Z,64.60
2023-05-10T04:45:10.635Z,64.30
2023-05-10T04:47:38.167Z,64.30
2023-05-10T04:50:06.174Z,64.20
2023-05-10T04:52:33.309Z,63.90
2023-05-10T04:55:00.284Z,63.80
2023-05-10T04:57:27.392Z,63.70
2023-05-10T04:59:54.440Z,63.10
2023-05-10T05:02:21.604Z,62.70
2023-05-10T05:04:48.637Z,62.40
2023-05-10T05:07:15.864Z,61.80
2023-05-10T05:09:42.944Z,61.20
2023-05-10T05:12:14.998Z,61.40
2023-05-10T05:14:42.337Z,61.00
2023-05-10T05:17:09.292Z,60.30
2023-05-10T05:19:36.842Z,60.00
2023-05-10T05:22:04.145Z,59.70
2023-05-10T05:24:38.824Z,60.10
2023-05-10T05:27:05.957Z,59.40
2023-05-10T05:29:33.230Z,59.20
2023-05-10T05:32:00.468Z,59.50
2023-05-10T05:34:28.101Z,58.90
2023-05-10T05:36:55.220Z,58.50
2023-05-10T05:39:22.285Z,58.90
2023-05-10T05:41:49.318Z,59.10
2023-05-10T05:44:16.283Z,58.80
2023-05-10T05:46:43.331Z,59.00
2023-05-10T05:49:10.954Z,56.60
2023-05-10T05:51:38.140Z,56.90
2023-05-10T05:54:05.462Z,57.90
2023-05-10T05:56:32.502Z,57.00
2023-05-10T05:58:59.548Z,56.80
2023-05-10T06:01:26.666Z,57.70
2023-05-10T06:03:53.908Z,56.10
2023-05-10T06:06:21.102Z,56.10
2023-05-10T06:08:48.080Z,56.30
2023-05-10T06:11:15.113Z,54.80
2023-05-10T06:13:43.350Z,54.00
2023-05-10T06:16:10.395Z,54.60
2023-05-10T06:18:37.311Z,54.90
2023-05-10T06:21:04.414Z,53.40
2023-05-10T06:23:31.409Z,53.30
2023-05-10T06:25:58.408Z,53.70
2023-05-10T06:28:25.348Z,52.20
2023-05-10T06:31:12.930Z,52.20
2023-05-10T06:33:39.969Z,51.30
2023-05-10T06:36:07.020Z,52.10
2023-05-10T06:38:34.367Z,53.30
2023-05-10T06:41:03.626Z,50.60
2023-05-10T06:43:30.803Z,51.20
2023-05-10T06:45:58.372Z,51.40
2023-05-10T06:48:25.489Z,51.20
2023-05-10T06:50:52.625Z,50.50
2023-05-10T06:53:19.691Z,50.80
2023-05-10T06:56:04.540Z,50.10
2023-05-10T06:58:33.857Z,51.00
2023-05-10T07:01:06.198Z,51.30
2023-05-10T07:03:33.443Z,48.90
2023-05-10T07:06:04.867Z,49.40
2023-05-10T07:08:36.015Z,50.90
2023-05-10T07:11:11.299Z,49.70
2023-05-10T07:13:40.274Z,49.30
2023-05-10T07:16:07.599Z,48.70
2023-05-10T07:18:35.088Z,49.00
2023-05-10T07:21:02.778Z,48.80
2023-05-10T07:23:30.608Z,49.40
2023-05-10T07:25:58.521Z,47.90
2023-05-10T07:28:25.561Z,49.00
2023-05-10T07:30:52.738Z,47.50
2023-05-10T07:33:19.910Z,48.60
2023-05-10T07:35:47.731Z,48.50
2023-05-10T07:38:14.995Z,47.90
2023-05-10T07:40:42.045Z,48.40
2023-05-10T07:43:09.033Z,47.70
2023-05-10T07:45:36.279Z,47.20
2023-05-10T07:48:03.569Z,47.80
2023-05-10T07:50:30.754Z,46.80
2023-05-10T07:53:00.826Z,49.50
2023-05-10T07:55:27.895Z,49.00
2023-05-10T07:57:54.838Z,46.70
2023-05-10T08:00:22.278Z,46.20
2023-05-10T08:02:49.335Z,47.00
2023-05-10T08:05:16.672Z,48.50
2023-05-10T08:07:43.959Z,47.50
2023-05-10T08:10:12.322Z,47.80
2023-05-10T08:12:39.717Z,47.70
2023-05-10T08:15:08.067Z,46.70
2023-05-10T08:17:35.160Z,46.70
2023-05-10T08:20:02.585Z,46.50
2023-05-10T08:22:29.701Z,47.60
2023-05-10T08:25:00.518Z,46.60
2023-05-10T08:27:27.631Z,45.80
2023-05-10T08:29:54.548Z,46.00
2023-05-10T08:32:21.735Z,46.30
2023-05-10T08:34:48.654Z,46.80
2023-05-10T08:37:15.724Z,47.70
2023-05-10T08:39:42.735Z,46.40
2023-05-10T08:42:10.885Z,47.40
2023-05-10T08:44:38.227Z,45.80
2023-05-10T08:47:10.255Z,45.80
2023-05-10T08:49:38.707Z,46.40
2023-05-10T08:52:15.130Z,45.50
2023-05-10T08:54:55.946Z,44.90
2023-05-10T08:57:23.146Z,45.70
2023-05-10T08:59:50.173Z,45.80
2023-05-10T09:02:19.334Z,46.40
2023-05-10T09:04:46.544Z,46.20
2023-05-10T09:07:13.749Z,44.50
2023-05-10T09:09:41.034Z,46.10
2023-05-10T09:12:12.213Z,44.40
2023-05-10T09:14:39.551Z,43.90
2023-05-10T09:17:06.853Z,45.30
2023-05-10T09:19:33.962Z,45.30
2023-05-10T09:22:02.733Z,44.70
2023-05-10T09:24:31.367Z,48.30
2023-05-10T09:26:59.374Z,45.20
2023-05-10T09:29:26.367Z,43.70
2023-05-10T09:31:55.632Z,45.60
2023-05-10T09:34:30.979Z,46.10
2023-05-10T09:37:05.812Z,45.50
2023-05-10T09:39:34.367Z,44.80
2023-05-10T09:42:05.076Z,43.70
2023-05-10T09:44:33.897Z,43.90
2023-05-10T09:47:02.524Z,44.90
2023-05-10T09:49:30.131Z,43.60
2023-05-10T09:52:08.574Z,44.80
2023-05-10T09:54:36.177Z,43.90
2023-05-10T09:57:06.303Z,43.70
2023-05-10T09:59:35.968Z,42.60
2023-05-10T10:02:03.937Z,43.90
2023-05-10T10:04:31.061Z,43.70
2023-05-10T10:07:03.751Z,43.80
2023-05-10T10:09:31.589Z,42.90
2023-05-10T10:11:58.820Z,41.40
2023-05-10T10:14:26.393Z,41.20
2023-05-10T10:17:06.395Z,41.00
2023-05-10T10:19:38.021Z,43.00
2023-05-10T10:22:06.096Z,43.30
2023-05-10T10:24:33.110Z,40.90
2023-05-10T10:27:16.388Z,40.80
2023-05-10T10:29:58.982Z,40.70
2023-05-10T10:33:10.238Z,40.10
2023-05-10T10:35:47.723Z,42.60
2023-05-10T10:38:14.967Z,42.50
2023-05-10T10:40:42.032Z,42.40
2023-05-10T10:43:29.416Z,41.00
2023-05-10T10:46:16.308Z,38.30
2023-05-10T10:48:49.565Z,39.80
2023-05-10T10:51:16.695Z,37.90
2023-05-10T10:53:44.698Z,38.80
2023-05-10T10:56:14.676Z,39.10
2023-05-10T10:58:42.475Z,39.10
2023-05-10T11:01:17.270Z,38.10
2023-05-10T11:04:16.474Z,39.40
2023-05-10T11:06:43.708Z,37.30
2023-05-10T11:09:12.829Z,37.30
2023-05-10T11:11:56.513Z,38.10
2023-05-10T11:14:23.989Z,39.80
2023-05-10T11:16:51.190Z,39.80
2023-05-10T11:19:19.108Z,40.40
2023-05-10T11:21:51.404Z,40.00
2023-05-10T11:24:21.123Z,40.10
2023-05-10T11:26:51.488Z,41.00
2023-05-10T11:29:18.743Z,41.80
2023-05-10T11:31:47.931Z,39.70
2023-05-10T11:34:31.325Z,39.60
2023-05-10T11:36:58.775Z,40.20
2023-05-10T11:39:30.679Z,38.20
2023-05-10T11:41:58.863Z,38.30
2023-05-10T11:44:35.423Z,40.40
2023-05-10T11:47:02.852Z,40.70
2023-05-10T11:49:29.938Z,42.00
2023-05-10T11:52:09.825Z,40.40
2023-05-10T11:54:37.122Z,41.60
2023-05-10T11:57:04.660Z,41.60
2023-05-10T11:59:31.585Z,40.60
2023-05-10T12:01:58.770Z,41.00
2023-05-10T12:04:26.669Z,43.00
2023-05-10T12:06:53.683Z,40.80
2023-05-10T12:09:31.472Z,43.20
2023-05-10T12:12:03.926Z,41.70
2023-05-10T12:14:34.871Z,41.30
2023-05-10T12:17:01.907Z,42.50
2023-05-10T12:19:28.867Z,42.80
2023-05-10T12:21:55.891Z,43.10
2023-05-10T12:24:22.918Z,41.30
2023-05-10T12:32:20.468Z,42.80
2023-05-10T12:34:48.112Z,43.50
2023-05-10T12:37:15.196Z,42.80
2023-05-10T12:39:44.674Z,44.10
2023-05-10T12:42:12.184Z,41.70
2023-05-10T12:44:39.832Z,42.40
2023-05-10T12:47:07.130Z,41.80
2023-05-10T12:49:35.081Z,43.00
2023-05-10T12:52:02.454Z,43.70
2023-05-10T12:54:29.482Z,42.20
2023-05-10T12:56:57.068Z,42.50
2023-05-10T12:59:24.051Z,43.20
2023-05-10T13:01:51.082Z,44.70
2023-05-10T13:04:18.080Z,44.50
2023-05-10T13:06:45.151Z,41.60
2023-05-10T13:09:12.111Z,41.40
2023-05-10T13:11:39.090Z,42.20
2023-05-10T13:14:06.018Z,42.80
2023-05-10T13:16:33.403Z,41.80
2023-05-10T13:19:00.567Z,42.70
2023-05-10T13:21:27.699Z,42.90
2023-05-10T13:23:54.736Z,42.90
2023-05-10T13:26:22.878Z,42.40
2023-05-10T13:28:50.654Z,42.90
2023-05-10T13:31:17.672Z,42.80
2023-05-10T13:33:44.624Z,43.00
2023-05-10T13:36:12.912Z,42.60
2023-05-10T13:38:39.777Z,44.00
2023-05-10T13:41:06.768Z,43.50
2023-05-10T13:43:33.830Z,43.30
2023-05-10T13:46:01.066Z,42.50
2023-05-10T13:48:28.373Z,42.20
2023-05-10T13:50:55.425Z,40.70
2023-05-10T13:53:22.732Z,40.70
2023-05-10T13:55:50.129Z,41.70
2023-05-10T13:58:17.110Z,41.00
2023-05-10T14:00:44.116Z,39.80
2023-05-10T14:03:55.865Z,40.90
2023-05-10T14:06:23.089Z,42.20
2023-05-10T14:08:49.974Z,41.60
2023-05-10T14:11:16.905Z,39.50
2023-05-10T14:13:43.860Z,39.20
2023-05-10T14:16:10.971Z,40.70
2023-05-10T14:18:38.002Z,40.20
2023-05-10T14:21:05.130Z,39.70
2023-05-10T14:23:32.877Z,38.30
2023-05-10T14:25:59.927Z,39.60
2023-05-10T14:28:27.202Z,40.60
2023-05-10T14:30:54.259Z,41.10
2023-05-10T14:33:21.839Z,40.70
2023-05-10T14:35:49.150Z,39.90
2023-05-10T14:38:16.323Z,40.00
2023-05-10T14:40:46.526Z,40.30
2023-05-10T14:43:13.501Z,38.60
2023-05-10T14:45:40.479Z,40.00
2023-05-10T14:48:09.290Z,38.80
2023-05-10T14:50:37.489Z,39.30
2023-05-10T14:53:04.952Z,40.00
2023-05-10T14:55:31.958Z,39.50
2023-05-10T14:57:59.376Z,39.80
2023-05-10T15:00:26.731Z,39.30
2023-05-10T15:02:54.245Z,38.90
2023-05-10T15:05:21.716Z,39.30
2023-05-10T15:07:49.227Z,39.20
2023-05-10T15:10:16.590Z,39.40
2023-05-10T15:12:43.799Z,41.30
2023-05-10T15:15:10.851Z,38.20
2023-05-10T15:17:38.155Z,39.10
2023-05-10T15:20:05.685Z,38.10
2023-05-10T15:22:34.274Z,39.30
2023-05-10T15:25:04.168Z,40.60
2023-05-10T15:27:31.157Z,39.60
2023-05-10T15:29:58.117Z,41.00
2023-05-10T15:32:25.180Z,40.00
2023-05-10T15:34:52.135Z,40.30
2023-05-10T15:37:19.086Z,39.00
2023-05-10T15:39:46.194Z,38.50
2023-05-10T15:42:13.425Z,39.40
2023-05-10T15:44:40.313Z,38.40
2023-05-10T15:47:07.717Z,39.70
2023-05-10T15:49:35.109Z,38.80
2023-05-10T15:52:02.108Z,39.90
2023-05-10T15:54:29.104Z,39.50
2023-05-10T15:56:56.174Z,40.00
2023-05-10T15:59:23.251Z,38.50
2023-05-10T16:01:51.109Z,39.30
2023-05-10T16:04:18.318Z,38.70
2023-05-10T16:06:45.664Z,38.30
2023-05-10T16:09:12.648Z,38.90
2023-05-10T16:11:40.035Z,39.50
2023-05-10T16:14:07.526Z,39.70
2023-05-10T16:16:34.908Z,39.10
2023-05-10T16:19:06.550Z,39.20
2023-05-10T16:21:33.806Z,39.00
2023-05-10T16:24:01.130Z,38.90
2023-05-10T16:26:28.103Z,40.80
2023-05-10T16:28:55.090Z,41.20
2023-05-10T16:31:22.415Z,40.60
2023-05-10T16:33:50.081Z,40.40
2023-05-10T16:36:17.388Z,40.00
2023-05-10T16:38:44.361Z,40.30
2023-05-10T16:41:11.330Z,41.30
2023-05-10T16:43:38.390Z,41.60
2023-05-10T16:46:10.844Z,40.80
2023-05-10T16:48:38.322Z,41.50
2023-05-10T16:51:05.392Z,41.80
2023-05-10T16:53:32.598Z,41.10
2023-05-10T16:55:59.614Z,42.30
2023-05-10T16:58:26.600Z,41.20
2023-05-10T17:00:56.146Z,42.10
2023-05-10T17:03:23.551Z,42.20
2023-05-10T17:05:50.512Z,42.80
2023-05-10T17:08:17.958Z,42.30
2023-05-10T17:10:44.948Z,42.50
2023-05-10T17:13:17.022Z,43.40
2023-05-10T17:15:46.971Z,41.40
2023-05-10T17:18:14.052Z,42.20
2023-05-10T17:20:45.154Z,42.30
2023-05-10T17:23:12.281Z,42.60
2023-05-10T17:25:39.204Z,43.80
2023-05-10T17:28:06.260Z,43.30
2023-05-10T17:30:36.233Z,43.10
2023-05-10T17:33:03.430Z,43.30
2023-05-10T17:35:31.511Z,42.80
2023-05-10T17:37:58.514Z,42.90
2023-05-10T17:40:27.869Z,42.60
2023-05-10T17:42:54.907Z,42.50
2023-05-10T17:45:23.303Z,43.30
2023-05-10T17:47:50.385Z,43.40
2023-05-10T17:50:17.531Z,43.40
2023-05-10T17:52:44.594Z,44.00
2023-05-10T17:55:12.596Z,44.80
2023-05-10T17:57:39.692Z,45.30
2023-05-10T18:00:09.229Z,45.40
2023-05-10T18:02:36.966Z,46.10
2023-05-10T18:05:04.866Z,44.90
2023-05-10T18:07:32.113Z,44.80
2023-05-10T18:09:59.273Z,45.80
2023-05-10T18:12:26.926Z,44.80
2023-05-10T18:14:53.876Z,45.70
2023-05-10T18:17:21.018Z,46.10
2023-05-10T18:19:48.151Z,46.80
2023-05-10T18:22:15.208Z,46.20
2023-05-10T18:24:42.257Z,46.30
2023-05-10T18:32:00.341Z,46.30
2023-05-10T18:34:27.487Z,46.40
2023-05-10T18:36:54.606Z,45.90
2023-05-10T18:39:21.876Z,46.90
2023-05-10T18:41:49.742Z,47.50
2023-05-10T18:44:16.849Z,47.00
2023-05-10T18:46:44.063Z,47.50
2023-05-10T18:49:11.477Z,46.60
2023-05-10T18:51:38.438Z,47.60
2023-05-10T18:54:05.448Z,47.10
2023-05-10T18:56:32.337Z,47.10
2023-05-10T18:58:59.324Z,46.30
2023-05-10T19:01:26.467Z,47.00
2023-05-10T19:03:53.464Z,47.40
2023-05-10T19:06:20.830Z,47.30
2023-05-10T19:08:47.775Z,48.00
2023-05-10T19:11:14.694Z,48.30
2023-05-10T19:13:41.705Z,48.70
2023-05-10T19:16:14.328Z,48.40
2023-05-10T19:18:42.428Z,48.60
2023-05-10T19:21:10.825Z,49.30
2023-05-10T19:23:40.385Z,49.00
2023-05-10T19:26:09.970Z,49.00
2023-05-10T19:28:37.510Z,48.90
2023-05-10T19:31:04.667Z,49.30
2023-05-10T19:33:31.757Z,49.50
2023-05-10T19:35:58.756Z,49.60
2023-05-10T19:38:26.216Z,49.10
2023-05-10T19:40:58.146Z,49.90
2023-05-10T19:43:32.822Z,49.90
2023-05-10T19:46:04.657Z,50.10
2023-05-10T19:48:32.412Z,50.40
2023-05-10T19:51:04.799Z,50.50
2023-05-10T19:53:33.588Z,50.40
2023-05-10T19:56:06.286Z,50.20
2023-05-10T19:58:34.133Z,50.70
2023-05-10T20:01:01.535Z,51.10
2023-05-10T20:03:29.165Z,51.40
2023-05-10T20:05:56.185Z,51.70
2023-05-10T20:08:23.182Z,52.00
2023-05-10T20:10:50.795Z,52.20
2023-05-10T20:13:17.953Z,51.40
2023-05-10T20:15:45.769Z,52.00
2023-05-10T20:18:15.442Z,52.40
2023-05-10T20:20:43.247Z,52.60
2023-05-10T20:23:10.158Z,52.20
2023-05-10T20:25:37.207Z,52.50
2023-05-10T20:28:04.362Z,52.50
2023-05-10T20:30:31.699Z,52.70
2023-05-10T20:32:58.769Z,52.50
2023-05-10T20:35:25.768Z,53.00
2023-05-10T20:37:52.708Z,52.80
2023-05-10T20:40:19.843Z,52.80
2023-05-10T20:42:47.665Z,52.70
2023-05-10T20:45:14.896Z,52.30
2023-05-10T20:47:42.077Z,52.70
2023-05-10T20:50:09.595Z,52.90
2023-05-10T20:52:36.518Z,53.20
2023-05-10T20:55:03.616Z,53.20
2023-05-10T20:57:30.640Z,53.30
2023-05-10T20:59:57.801Z,52.90
2023-05-10T21:02:25.022Z,53.50
2023-05-10T21:04:52.189Z,54.40
2023-05-10T21:07:19.142Z,54.00
2023-05-10T21:09:46.105Z,54.40
2023-05-10T21:12:13.491Z,54.10
2023-05-10T21:14:40.539Z,54.10
2023-05-10T21:17:07.511Z,54.50
2023-05-10T21:19:34.599Z,54.60
2023-05-10T21:22:02.039Z,54.10
2023-05-10T21:24:29.225Z,54.00
2023-05-10T21:26:56.116Z,54.40
2023-05-10T21:29:23.068Z,54.60
2023-05-10T21:31:50.083Z,54.50
2023-05-10T21:34:18.093Z,54.10
2023-05-10T21:36:45.021Z,54.40
2023-05-10T21:39:12.057Z,54.80
2023-05-10T21:41:39.037Z,54.20
2023-05-10T21:44:05.980Z,54.80
2023-05-10T21:46:33.113Z,54.90
2023-05-10T21:49:00.015Z,55.30
2023-05-10T21:51:26.964Z,54.70
2023-05-10T21:53:53.980Z,55.00
2023-05-10T21:56:21.048Z,54.30
2023-05-10T21:58:47.980Z,54.30
2023-05-10T22:01:17.192Z,54.80
2023-05-10T22:03:44.916Z,55.20
2023-05-10T22:06:12.157Z,54.40
2023-05-10T22:08:39.083Z,54.40
2023-05-10T22:11:06.150Z,54.80
2023-05-10T22:13:33.087Z,54.50
2023-05-10T22:16:00.158Z,54.60
2023-05-10T22:18:27.221Z,54.80
2023-05-10T22:20:54.194Z,55.10
2023-05-10T22:23:21.160Z,55.40
2023-05-10T22:25:48.136Z,55.50
2023-05-10T22:28:15.013Z,55.70
2023-05-10T22:30:43.118Z,56.30
2023-05-10T22:33:10.066Z,56.70
2023-05-10T22:35:37.068Z,56.60
2023-05-10T22:38:04.755Z,56.60
2023-05-10T22:40:32.281Z,56.40
2023-05-10T22:42:59.252Z,56.60
2023-05-10T22:45:26.241Z,56.80
2023-05-10T22:47:53.519Z,57.10
2023-05-10T22:50:21.383Z,57.70
2023-05-10T22:52:48.497Z,57.40
2023-05-10T22:55:15.477Z,57.70
2023-05-10T22:57:42.444Z,57.60
2023-05-10T23:00:09.866Z,58.00
2023-05-10T23:02:37.681Z,58.10
2023-05-10T23:05:05.775Z,58.60
2023-05-10T23:07:34.164Z,59.00
2023-05-10T23:10:01.271Z,59.30
2023-05-10T23:12:28.254Z,59.40
2023-05-10T23:14:56.627Z,59.70
2023-05-10T23:17:23.631Z,59.90
2023-05-10T23:19:50.603Z,60.40
2023-05-10T23:22:17.583Z,60.50
2023-05-10T23:24:44.523Z,60.40
2023-05-10T23:27:11.424Z,60.40
2023-05-10T23:29:38.510Z,60.60
2023-05-10T23:32:05.890Z,60.60
2023-05-10T23:34:32.906Z,60.40
2023-05-10T23:36:59.970Z,60.70
2023-05-10T23:39:27.083Z,60.40
2023-05-10T23:41:54.054Z,60.50
2023-05-10T23:44:21.090Z,60.80
2023-05-10T23:46:48.019Z,60.90
2023-05-10T23:49:14.984Z,60.80
2023-05-10T23:51:41.918Z,61.30
2023-05-10T23:54:08.901Z,61.30
2023-05-10T23:56:35.799Z,61.50
2023-05-10T23:59:02.937Z,61.90
